Danbury, CT (06810)

6:07 PM EDT on September 03, 2015 (GMT -0400)
Gregory ST | | Change Station
CLOSE
Current Station
Personal Weather Station
Location: Danbury, CT
Elevation: 621 ft
Nearby Weather Stations

Elev 621 ft 41.40 °N, 73.48 °W | Updated 19 seconds ago

Clear
Clear
86.3 °F
Feels Like 87 °F
N
0.0
Wind Variable Wind from WNW
Gusts 0.0 mph

Today
High -- | Low -- °F
--% Chance of Precip.
Yesterday
High -- | Low -- °F
Precip. -- in
6:21 AM 7:23 PM
Waning Gibbous, 66% visible
Pressure 29.85 in
Visibility 7.0 miles
Clouds Clear
Heat Index 87 °F
Dew Point 64 °F
Humidity 47%
Rainfall 0.00 in
Snow Depth Not available.
UV 1 out of 12
Pollen 7.80 out of 12
Air Quality Not available.
Flu Activity Not available.
METAR KDXR 032153Z VRB05KT 7SM CLR 31/14 A2986 RMK AO2 SLP107 T03110144
Pressure 29.85 in
Visibility 7.0 miles
Clouds Clear
Heat Index 87 °F
Dew Point 64 °F
Humidity 47%
Rainfall 0.00 in
Snow Depth Not available.
UV 1 out of 12
Pollen 7.80 out of 12
Air Quality Not available.
Flu Activity Not available.
METAR KDXR 032153Z VRB05KT 7SM CLR 31/14 A2986 RMK AO2 SLP107 T03110144

10-Day Weather Forecast

×

Almanac

Astronomy

Sep. 03, 2015 Rise Set
Actual Time
Civil Twilight
Nautical Twilight
Astronomical Twilight
Moon
Length of Visible Light
Length of Day
Tomorrow will be .
, % of the Moon is Illuminated

Today's Extremes

State Highs State Lows

Community

WunderPhotos

Upload Photos

1,852,046 photos uploaded!

WunderBlogs® & News

Nearby

Air Quality

  Air Quality AQ Index Pollutant
Not available.

Snow Depth

Station Depth Elevation

Earthquake Activity

City Distance Mag. Time & Date
Minimum magnitude displayed is 2.5.

Coastal Water Temperatures

Place Temperature

Stations

Nearby Weather Stations

Station Location Temp. Windchill Dew Point Humidity Wind Precip. Elev Updated Type